createdAt,value
2023-05-14T00:02:14.075Z,63.70
2023-05-14T00:04:41.211Z,63.70
2023-05-14T00:07:08.272Z,63.80
2023-05-14T00:09:36.103Z,63.70
2023-05-14T00:12:03.222Z,64.10
2023-05-14T00:14:30.409Z,64.60
2023-05-14T00:16:57.431Z,63.50
2023-05-14T00:19:24.544Z,64.20
2023-05-14T00:21:51.753Z,64.00
2023-05-14T00:24:19.088Z,63.50
2023-05-14T00:26:46.009Z,64.60
2023-05-14T00:29:13.006Z,63.90
2023-05-14T00:31:40.039Z,64.70
2023-05-14T00:34:07.230Z,64.30
2023-05-14T00:36:34.296Z,63.80
2023-05-14T00:39:01.258Z,63.50
2023-05-14T00:41:28.467Z,64.10
2023-05-14T00:43:55.434Z,65.00
2023-05-14T00:46:22.860Z,64.50
2023-05-14T00:48:51.096Z,63.50
2023-05-14T00:51:19.241Z,64.10
2023-05-14T00:53:47.474Z,63.40
2023-05-14T00:56:16.007Z,63.80
2023-05-14T00:58:42.999Z,63.60
2023-05-14T01:01:10.340Z,64.00
2023-05-14T01:03:37.584Z,63.50
2023-05-14T01:06:17.473Z,63.40
2023-05-14T01:09:05.946Z,64.00
2023-05-14T01:11:44.522Z,64.30
2023-05-14T01:14:26.081Z,65.30
2023-05-14T01:16:58.489Z,64.40
2023-05-14T01:19:35.713Z,64.20
2023-05-14T01:22:02.925Z,63.80
2023-05-14T01:24:29.982Z,63.80
2023-05-14T01:27:10.988Z,64.50
2023-05-14T01:29:42.444Z,63.90
2023-05-14T01:32:10.768Z,64.00
2023-05-14T01:34:39.103Z,63.90
2023-05-14T01:37:07.567Z,64.10
2023-05-14T01:39:38.048Z,64.00
2023-05-14T01:42:06.911Z,64.60
2023-05-14T01:44:34.345Z,64.50
2023-05-14T01:47:01.579Z,63.90
2023-05-14T01:49:28.556Z,64.30
2023-05-14T01:51:55.569Z,64.60
2023-05-14T01:54:22.690Z,64.80
2023-05-14T01:56:50.234Z,64.90
2023-05-14T01:59:17.648Z,64.00
2023-05-14T02:01:44.817Z,63.50
2023-05-14T02:04:12.004Z,63.90
2023-05-14T02:06:42.283Z,64.20
2023-05-14T02:09:09.299Z,64.10
2023-05-14T02:11:36.334Z,64.20
2023-05-14T02:14:03.368Z,63.20
2023-05-14T02:16:30.516Z,63.80
2023-05-14T02:18:57.666Z,64.10
2023-05-14T02:21:24.757Z,63.50
2023-05-14T02:23:51.977Z,64.00
2023-05-14T02:26:18.931Z,64.50
2023-05-14T02:28:45.990Z,64.30
2023-05-14T02:31:13.487Z,63.70
2023-05-14T02:33:42.435Z,64.20
2023-05-14T02:36:09.592Z,63.90
2023-05-14T02:38:36.630Z,64.30
2023-05-14T02:41:03.595Z,64.70
2023-05-14T02:43:30.539Z,64.30
2023-05-14T02:45:57.575Z,64.50
2023-05-14T02:48:24.545Z,65.30
2023-05-14T02:50:52.194Z,64.60
2023-05-14T02:53:19.269Z,64.00
2023-05-14T02:55:46.318Z,64.50
2023-05-14T02:58:13.391Z,64.70
2023-05-14T03:00:40.534Z,64.50
2023-05-14T03:03:08.250Z,63.90
2023-05-14T03:05:35.757Z,65.30
2023-05-14T03:08:02.878Z,63.60
2023-05-14T03:10:29.890Z,64.40
2023-05-14T03:12:56.889Z,63.90
2023-05-14T03:15:24.076Z,63.90
2023-05-14T03:17:51.795Z,64.50
2023-05-14T03:20:18.770Z,64.40
2023-05-14T03:22:46.364Z,65.10
2023-05-14T03:25:14.482Z,64.50
2023-05-14T03:27:41.624Z,64.40
2023-05-14T03:30:08.993Z,64.40
2023-05-14T03:32:37.587Z,64.40
2023-05-14T03:35:05.027Z,64.70
2023-05-14T03:37:32.723Z,65.40
2023-05-14T03:39:59.698Z,64.40
2023-05-14T03:42:27.208Z,64.70
2023-05-14T03:44:54.225Z,64.30
2023-05-14T03:47:21.261Z,64.50
2023-05-14T03:49:48.229Z,64.50
2023-05-14T03:52:15.910Z,64.70
2023-05-14T03:54:44.620Z,64.60
2023-05-14T03:57:11.606Z,64.70
2023-05-14T03:59:38.559Z,63.80
2023-05-14T04:02:06.149Z,64.70
2023-05-14T04:04:33.370Z,64.70
2023-05-14T04:07:02.430Z,64.60
2023-05-14T04:09:29.446Z,64.50
2023-05-14T04:11:57.328Z,64.60
2023-05-14T04:14:24.634Z,64.60
2023-05-14T04:16:51.634Z,64.20
2023-05-14T04:19:18.741Z,64.10
2023-05-14T04:21:45.906Z,64.20
2023-05-14T04:24:12.834Z,64.40
2023-05-14T04:26:39.846Z,63.80
2023-05-14T04:29:06.858Z,63.00
2023-05-14T04:31:33.928Z,64.60
2023-05-14T04:34:00.926Z,64.60
2023-05-14T04:36:27.911Z,63.60
2023-05-14T04:38:54.838Z,64.30
2023-05-14T04:41:21.914Z,64.20
2023-05-14T04:43:50.891Z,64.30
2023-05-14T04:46:18.035Z,64.50
2023-05-14T04:48:45.088Z,63.70
2023-05-14T04:51:12.115Z,63.30
2023-05-14T04:53:39.189Z,64.70
2023-05-14T04:56:06.625Z,64.60
2023-05-14T04:58:35.099Z,64.60
2023-05-14T05:01:05.069Z,64.30
2023-05-14T05:03:32.416Z,63.50
2023-05-14T05:05:59.589Z,64.70
2023-05-14T05:08:26.788Z,64.60
2023-05-14T05:10:53.742Z,63.80
2023-05-14T05:13:20.683Z,64.50
2023-05-14T05:15:47.779Z,64.40
2023-05-14T05:18:14.870Z,64.80
2023-05-14T05:20:41.796Z,64.30
2023-05-14T05:23:08.982Z,63.90
2023-05-14T05:25:36.189Z,63.80
2023-05-14T05:28:03.132Z,63.80
2023-05-14T05:30:30.373Z,63.20
2023-05-14T05:32:57.771Z,64.70
2023-05-14T05:35:25.106Z,64.00
2023-05-14T05:37:52.094Z,64.00
2023-05-14T05:40:19.300Z,64.50
2023-05-14T05:42:46.252Z,64.60
2023-05-14T05:45:13.357Z,64.60
2023-05-14T05:47:40.910Z,64.60
2023-05-14T05:50:09.810Z,63.40
2023-05-14T05:52:36.925Z,63.90
2023-05-14T05:55:04.064Z,63.80
2023-05-14T05:57:30.999Z,63.10
2023-05-14T05:59:58.156Z,63.50
2023-05-14T06:02:25.443Z,64.40
2023-05-14T06:04:53.273Z,64.50
2023-05-14T06:07:20.291Z,63.50
2023-05-14T06:09:47.301Z,63.20
2023-05-14T06:12:14.256Z,62.60
2023-05-14T06:14:41.484Z,63.60
2023-05-14T06:17:08.667Z,63.90
2023-05-14T06:19:35.695Z,63.70
2023-05-14T06:22:03.204Z,64.40
2023-05-14T06:24:30.210Z,62.50
2023-05-14T06:26:57.289Z,62.40
2023-05-14T06:29:25.069Z,63.10
2023-05-14T06:31:52.321Z,63.20
2023-05-14T06:34:19.373Z,62.20
2023-05-14T06:36:46.474Z,63.00
2023-05-14T06:39:13.726Z,62.90
2023-05-14T06:41:40.686Z,64.00
2023-05-14T06:44:14.242Z,63.70
2023-05-14T06:46:41.327Z,62.70
2023-05-14T06:49:08.505Z,63.60
2023-05-14T06:51:35.599Z,63.30
2023-05-14T06:54:02.621Z,63.70
2023-05-14T06:56:29.566Z,63.70
2023-05-14T06:58:56.500Z,61.90
2023-05-14T07:01:23.976Z,62.10
2023-05-14T07:03:51.029Z,63.10
2023-05-14T07:06:18.109Z,63.50
2023-05-14T07:08:47.766Z,62.90
2023-05-14T07:11:15.305Z,64.90
2023-05-14T07:13:43.696Z,64.30
2023-05-14T07:16:10.983Z,63.00
2023-05-14T07:18:38.338Z,64.70
2023-05-14T07:21:06.606Z,64.60
2023-05-14T07:23:36.267Z,61.90
2023-05-14T07:26:06.946Z,63.10
2023-05-14T07:28:34.656Z,62.80
2023-05-14T07:31:01.890Z,63.40
2023-05-14T07:33:28.960Z,60.60
2023-05-14T07:35:55.941Z,61.20
2023-05-14T07:38:23.051Z,61.70
2023-05-14T07:40:50.009Z,62.20
2023-05-14T07:43:17.225Z,62.30
2023-05-14T07:45:44.524Z,63.40
2023-05-14T07:48:11.743Z,61.60
2023-05-14T07:50:39.005Z,62.80
2023-05-14T07:53:06.409Z,62.90
2023-05-14T07:55:33.458Z,64.20
2023-05-14T07:58:00.469Z,63.20
2023-05-14T08:00:27.804Z,62.50
2023-05-14T08:02:56.117Z,63.50
2023-05-14T08:05:23.310Z,63.10
2023-05-14T08:07:50.385Z,63.10
2023-05-14T08:10:17.408Z,61.50
2023-05-14T08:12:44.457Z,62.80
2023-05-14T08:15:12.215Z,62.00
2023-05-14T08:17:39.269Z,62.60
2023-05-14T08:20:07.579Z,62.10
2023-05-14T08:22:34.576Z,63.20
2023-05-14T08:25:03.715Z,62.40
2023-05-14T08:27:30.663Z,62.50
2023-05-14T08:29:57.708Z,62.80
2023-05-14T08:32:24.869Z,62.00
2023-05-14T08:34:52.502Z,61.90
2023-05-14T08:37:19.637Z,62.00
2023-05-14T08:39:46.868Z,62.70
2023-05-14T08:42:15.762Z,62.40
2023-05-14T08:45:03.731Z,63.00
2023-05-14T08:47:31.258Z,62.70
2023-05-14T08:50:07.411Z,62.60
2023-05-14T08:52:35.712Z,62.00
2023-05-14T08:55:06.842Z,61.10
2023-05-14T08:57:34.516Z,62.40
2023-05-14T09:00:13.387Z,62.30
2023-05-14T09:02:41.854Z,63.60
2023-05-14T09:05:09.389Z,63.20
2023-05-14T09:07:36.714Z,61.50
2023-05-14T09:10:04.635Z,61.70
2023-05-14T09:12:31.711Z,61.50
2023-05-14T09:14:58.691Z,61.00
2023-05-14T09:17:27.907Z,60.60
2023-05-14T09:19:55.930Z,61.50
2023-05-14T09:22:22.929Z,60.90
2023-05-14T09:25:11.018Z,61.00
2023-05-14T09:27:38.740Z,60.30
2023-05-14T09:30:10.547Z,61.50
2023-05-14T09:32:39.497Z,63.20
2023-05-14T09:35:25.423Z,63.30
2023-05-14T09:37:53.966Z,60.40
2023-05-14T09:40:24.368Z,60.10
2023-05-14T09:42:51.856Z,59.60
2023-05-14T09:45:18.993Z,59.50
2023-05-14T09:47:46.211Z,59.90
2023-05-14T09:50:13.491Z,60.20
2023-05-14T09:52:40.545Z,60.40
2023-05-14T09:55:08.429Z,61.10
2023-05-14T09:57:35.863Z,59.80
2023-05-14T10:00:03.073Z,59.90
2023-05-14T10:02:38.081Z,60.10
2023-05-14T10:05:06.925Z,59.70
2023-05-14T10:07:44.479Z,60.90
2023-05-14T10:10:16.465Z,60.10
2023-05-14T10:12:47.960Z,60.70
2023-05-14T10:15:23.771Z,60.20
2023-05-14T10:17:57.103Z,59.20
2023-05-14T10:20:25.283Z,59.20
2023-05-14T10:22:52.536Z,59.60
2023-05-14T10:25:19.713Z,59.40
2023-05-14T10:27:46.770Z,59.60
2023-05-14T10:30:13.958Z,59.50
2023-05-14T10:32:42.097Z,59.20
2023-05-14T10:35:25.465Z,59.30
2023-05-14T10:37:52.509Z,59.40
2023-05-14T10:40:20.678Z,59.20
2023-05-14T10:42:47.945Z,59.10
2023-05-14T10:45:16.226Z,58.90
2023-05-14T10:47:46.176Z,58.90
2023-05-14T10:50:15.119Z,59.50
2023-05-14T10:52:43.617Z,59.20
2023-05-14T10:55:14.309Z,59.10
2023-05-14T10:57:44.230Z,59.20
2023-05-14T11:00:12.668Z,59.50
2023-05-14T11:02:42.186Z,59.30
2023-05-14T11:05:17.723Z,59.10
2023-05-14T11:07:46.979Z,59.10
2023-05-14T11:10:19.144Z,58.60
2023-05-14T11:12:48.644Z,58.50
2023-05-14T11:15:20.875Z,58.90
2023-05-14T11:17:49.533Z,58.90
2023-05-14T11:20:17.772Z,58.80
2023-05-14T11:22:46.516Z,59.10
2023-05-14T11:25:14.804Z,58.80
2023-05-14T11:27:45.127Z,58.50
2023-05-14T11:30:17.066Z,57.80
2023-05-14T11:32:46.453Z,58.20
2023-05-14T11:35:14.254Z,58.60
2023-05-14T11:37:41.488Z,59.40
2023-05-14T11:40:14.329Z,58.70
2023-05-14T11:42:41.812Z,58.70
2023-05-14T11:45:12.427Z,58.50
2023-05-14T11:47:41.365Z,58.20
2023-05-14T11:50:09.566Z,58.20
2023-05-14T11:52:43.288Z,57.80
2023-05-14T11:55:13.365Z,58.30
2023-05-14T11:57:41.244Z,58.50
2023-05-14T12:00:11.240Z,58.30
2023-05-14T12:02:38.661Z,59.80
2023-05-14T12:05:12.344Z,59.40
2023-05-14T12:07:39.773Z,60.10
2023-05-14T12:10:07.315Z,61.10
2023-05-14T12:12:37.753Z,61.40
2023-05-14T12:15:13.344Z,61.40
2023-05-14T12:17:40.692Z,60.90
2023-05-14T12:20:12.483Z,60.20
2023-05-14T12:22:42.636Z,60.60
2023-05-14T12:25:13.787Z,61.20
2023-05-14T12:27:41.516Z,61.70
2023-05-14T12:32:41.099Z,59.90
2023-05-14T12:35:08.964Z,61.00
2023-05-14T12:37:37.489Z,61.50
2023-05-14T12:40:09.269Z,61.20
2023-05-14T12:42:36.771Z,60.60
2023-05-14T12:45:07.473Z,61.00
2023-05-14T12:47:35.020Z,60.30
2023-05-14T12:50:02.643Z,59.50
2023-05-14T12:54:59.742Z,60.30
2023-05-14T12:57:27.770Z,60.10
2023-05-14T12:59:55.527Z,60.50
2023-05-14T13:02:22.621Z,61.10
2023-05-14T13:04:49.595Z,60.90
2023-05-14T13:07:16.547Z,60.40
2023-05-14T13:09:43.529Z,61.20
2023-05-14T13:12:10.545Z,61.20
2023-05-14T13:14:37.716Z,61.60
2023-05-14T13:17:05.554Z,61.70
2023-05-14T13:19:32.678Z,61.60
2023-05-14T13:21:59.613Z,61.60
2023-05-14T13:24:26.652Z,61.80
2023-05-14T13:26:53.637Z,61.80
2023-05-14T13:29:20.683Z,61.60
2023-05-14T13:31:48.005Z,61.50
2023-05-14T13:34:15.017Z,61.60
2023-05-14T13:36:43.617Z,61.20
2023-05-14T13:39:14.636Z,61.50
2023-05-14T13:41:42.078Z,62.00
2023-05-14T13:44:09.049Z,61.60
2023-05-14T13:46:36.058Z,61.70
2023-05-14T13:49:04.416Z,62.00
2023-05-14T13:51:31.389Z,62.30
2023-05-14T13:53:58.365Z,60.90
2023-05-14T13:56:25.968Z,61.60
2023-05-14T13:58:53.071Z,61.70
2023-05-14T14:01:20.171Z,61.90
2023-05-14T14:03:47.168Z,62.00
2023-05-14T14:06:14.124Z,62.10
2023-05-14T14:08:41.042Z,61.80
2023-05-14T14:11:08.114Z,62.30
2023-05-14T14:13:35.036Z,61.60
2023-05-14T14:16:03.593Z,61.90
2023-05-14T14:18:30.643Z,62.00
2023-05-14T14:20:57.934Z,62.20
2023-05-14T14:23:24.974Z,61.20
2023-05-14T14:25:51.902Z,61.60
2023-05-14T14:28:19.133Z,61.90
2023-05-14T14:30:46.386Z,62.30
2023-05-14T14:33:13.516Z,62.40
2023-05-14T14:35:40.679Z,62.60
2023-05-14T14:38:11.043Z,62.50
2023-05-14T14:40:38.413Z,62.30
2023-05-14T14:43:05.430Z,61.70
2023-05-14T14:45:35.742Z,61.60
2023-05-14T14:48:25.172Z,62.20
2023-05-14T14:50:52.813Z,61.90
2023-05-14T14:53:21.019Z,62.30
2023-05-14T14:55:49.116Z,62.30
2023-05-14T14:58:16.818Z,62.20
2023-05-14T15:00:44.252Z,62.30
2023-05-14T15:03:11.607Z,62.30
2023-05-14T15:05:38.758Z,61.50
2023-05-14T15:08:06.107Z,62.00
2023-05-14T15:10:37.775Z,62.10
2023-05-14T15:13:06.497Z,62.30
2023-05-14T15:15:34.596Z,62.00
2023-05-14T15:18:02.444Z,61.90
2023-05-14T15:20:29.942Z,62.20
2023-05-14T15:22:57.194Z,62.40
2023-05-14T15:25:25.438Z,62.40
2023-05-14T15:27:52.652Z,62.10
2023-05-14T15:30:19.768Z,62.30
2023-05-14T15:32:47.230Z,62.30
2023-05-14T15:35:14.598Z,62.40
2023-05-14T15:37:43.810Z,62.10
2023-05-14T15:40:11.912Z,62.30
2023-05-14T15:42:43.846Z,61.80
2023-05-14T15:45:13.120Z,61.90
2023-05-14T15:47:41.315Z,62.20
2023-05-14T15:50:09.138Z,62.00
2023-05-14T15:52:36.590Z,61.10
2023-05-14T15:55:06.086Z,62.10
2023-05-14T15:57:33.525Z,61.90
2023-05-14T16:00:00.542Z,62.10
2023-05-14T16:02:30.456Z,61.90
2023-05-14T16:04:57.648Z,61.60
2023-05-14T16:07:24.618Z,61.50
2023-05-14T16:09:51.840Z,61.70
2023-05-14T16:12:19.196Z,61.60
2023-05-14T16:14:46.522Z,61.50
2023-05-14T16:17:13.750Z,61.40
2023-05-14T16:19:40.795Z,61.50
2023-05-14T16:22:07.768Z,61.40
2023-05-14T16:24:34.785Z,61.80
2023-05-14T16:27:01.798Z,61.60
2023-05-14T16:29:28.760Z,61.90
2023-05-14T16:31:56.008Z,62.70
2023-05-14T16:34:23.057Z,62.10
2023-05-14T16:36:50.074Z,62.10
2023-05-14T16:39:17.666Z,62.40
2023-05-14T16:41:44.823Z,62.70
2023-05-14T16:44:11.958Z,62.80
2023-05-14T16:46:41.686Z,60.80
2023-05-14T16:49:08.874Z,61.10
2023-05-14T16:51:37.318Z,60.70
2023-05-14T16:54:04.348Z,59.80
2023-05-14T16:56:32.429Z,61.50
2023-05-14T16:58:59.467Z,62.10
2023-05-14T17:01:26.458Z,62.20
2023-05-14T17:03:53.448Z,61.10
2023-05-14T17:06:20.656Z,61.60
2023-05-14T17:08:47.757Z,62.20
2023-05-14T17:11:14.685Z,59.20
2023-05-14T17:13:41.677Z,57.90
2023-05-14T17:16:08.641Z,57.60
2023-05-14T17:18:35.804Z,57.00
2023-05-14T17:21:04.802Z,57.80
2023-05-14T17:23:31.882Z,56.30
2023-05-14T17:25:58.933Z,56.30
2023-05-14T17:28:26.968Z,57.70
2023-05-14T17:30:54.103Z,57.00
2023-05-14T17:33:21.291Z,56.20
2023-05-14T17:35:48.822Z,56.30
2023-05-14T17:38:15.812Z,56.60
2023-05-14T17:40:42.911Z,56.30
2023-05-14T17:43:09.906Z,56.30
2023-05-14T17:45:52.483Z,56.30
2023-05-14T17:48:20.691Z,56.60
2023-05-14T17:50:47.862Z,56.90
2023-05-14T17:53:15.016Z,56.70
2023-05-14T17:55:43.679Z,56.70
2023-05-14T17:58:15.572Z,56.70
2023-05-14T18:00:43.508Z,56.60
2023-05-14T18:03:11.281Z,57.00
2023-05-14T18:05:38.432Z,56.30
2023-05-14T18:08:05.775Z,56.10
2023-05-14T18:10:32.888Z,56.30
2023-05-14T18:12:59.867Z,56.30
2023-05-14T18:15:27.492Z,56.90
2023-05-14T18:17:54.782Z,57.10
2023-05-14T18:20:21.887Z,57.20
2023-05-14T18:22:50.612Z,57.10
2023-05-14T18:25:18.077Z,57.10
2023-05-14T18:27:45.709Z,57.00
2023-05-14T18:30:14.929Z,57.20
2023-05-14T18:32:43.758Z,57.20
2023-05-14T18:35:11.919Z,57.50
2023-05-14T18:37:39.445Z,57.30
2023-05-14T18:40:07.082Z,57.20
2023-05-14T18:42:34.707Z,57.40
2023-05-14T18:45:01.786Z,57.40
2023-05-14T18:47:28.867Z,57.30
2023-05-14T18:49:58.965Z,57.40
2023-05-14T18:52:26.684Z,57.20
2023-05-14T18:54:54.868Z,57.10
2023-05-14T18:57:22.333Z,56.80
2023-05-14T18:59:49.369Z,56.90
2023-05-14T19:02:16.410Z,56.90
2023-05-14T19:04:52.278Z,56.80
2023-05-14T19:07:20.783Z,57.40
2023-05-14T19:09:47.818Z,57.00
2023-05-14T19:12:15.146Z,56.70
2023-05-14T19:14:42.150Z,56.10
2023-05-14T19:17:09.179Z,56.60
2023-05-14T19:19:36.552Z,57.10
2023-05-14T19:22:03.883Z,56.20
2023-05-14T19:24:30.937Z,55.80
2023-05-14T19:26:58.048Z,56.30
2023-05-14T19:29:25.054Z,56.30
2023-05-14T19:31:52.171Z,56.10
2023-05-14T19:34:19.154Z,56.00
2023-05-14T19:36:46.389Z,57.10
2023-05-14T19:39:13.478Z,56.10
2023-05-14T19:41:40.673Z,56.10
2023-05-14T19:44:07.995Z,56.60
2023-05-14T19:46:35.285Z,56.60
2023-05-14T19:49:02.203Z,56.80
2023-05-14T19:51:29.183Z,57.00
2023-05-14T19:53:56.137Z,57.30
2023-05-14T19:56:24.757Z,57.20
2023-05-14T19:58:53.550Z,57.10
2023-05-14T20:01:21.073Z,57.10
2023-05-14T20:03:48.572Z,57.50
2023-05-14T20:06:18.501Z,57.50
2023-05-14T20:08:45.750Z,57.80
2023-05-14T20:11:12.784Z,57.20
2023-05-14T20:13:39.800Z,57.70
2023-05-14T20:16:06.953Z,57.30
2023-05-14T20:18:34.147Z,57.80
2023-05-14T20:21:01.289Z,57.70
2023-05-14T20:23:28.418Z,58.00
2023-05-14T20:25:55.766Z,58.20
2023-05-14T20:28:22.803Z,58.10
2023-05-14T20:30:49.810Z,58.20
2023-05-14T20:33:17.000Z,58.30
2023-05-14T20:35:44.248Z,58.50
2023-05-14T20:38:12.730Z,58.60
2023-05-14T20:40:40.385Z,58.30
2023-05-14T20:43:07.880Z,58.50
2023-05-14T20:45:34.842Z,58.60
2023-05-14T20:48:02.124Z,58.70
2023-05-14T20:50:29.141Z,58.30
2023-05-14T20:52:56.136Z,58.60
2023-05-14T20:55:23.542Z,58.90
2023-05-14T20:57:50.810Z,58.80
2023-05-14T21:00:18.362Z,58.50
2023-05-14T21:02:45.486Z,58.00
2023-05-14T21:05:13.900Z,58.00
2023-05-14T21:07:41.033Z,58.50
2023-05-14T21:10:09.485Z,58.70
2023-05-14T21:12:36.709Z,58.50
2023-05-14T21:15:04.031Z,58.80
2023-05-14T21:17:31.372Z,59.00
2023-05-14T21:19:58.447Z,59.20
2023-05-14T21:22:26.601Z,59.30
2023-05-14T21:24:54.671Z,59.50
2023-05-14T21:27:22.465Z,59.80
2023-05-14T21:29:49.476Z,59.80
2023-05-14T21:32:16.532Z,60.00
2023-05-14T21:34:43.636Z,59.90
2023-05-14T21:37:10.692Z,60.10
2023-05-14T21:39:37.666Z,60.00
2023-05-14T21:42:04.944Z,60.00
2023-05-14T21:44:31.862Z,60.40
2023-05-14T21:46:59.578Z,60.40
2023-05-14T21:49:26.528Z,60.30
2023-05-14T21:51:54.626Z,60.70
2023-05-14T21:54:21.699Z,60.40
2023-05-14T21:56:48.840Z,60.50
2023-05-14T21:59:15.852Z,60.90
2023-05-14T22:04:13.205Z,60.70
2023-05-14T22:06:40.451Z,60.90
2023-05-14T22:09:07.525Z,61.00
2023-05-14T22:11:34.467Z,61.50
2023-05-14T22:14:01.503Z,61.70
2023-05-14T22:16:28.556Z,62.00
2023-05-14T22:18:55.682Z,61.50
2023-05-14T22:21:22.706Z,62.00
2023-05-14T22:23:50.362Z,62.30
2023-05-14T22:26:17.421Z,62.30
2023-05-14T22:28:44.482Z,62.40
2023-05-14T22:31:11.578Z,62.40
2023-05-14T22:33:38.611Z,62.20
2023-05-14T22:36:07.020Z,62.40
2023-05-14T22:38:34.645Z,63.20
2023-05-14T22:41:01.687Z,62.60
2023-05-14T22:43:28.939Z,62.70
2023-05-14T22:45:55.867Z,62.40
2023-05-14T22:48:22.851Z,62.30
2023-05-14T22:50:49.770Z,62.40
2023-05-14T22:53:16.750Z,62.70
2023-05-14T22:55:43.882Z,62.90
2023-05-14T22:58:11.264Z,62.40
2023-05-14T23:00:38.181Z,62.20
2023-05-14T23:03:05.194Z,62.60
2023-05-14T23:05:32.154Z,62.30
2023-05-14T23:07:59.401Z,62.50
2023-05-14T23:10:26.457Z,63.10
2023-05-14T23:12:53.433Z,62.70
2023-05-14T23:15:20.455Z,62.40
2023-05-14T23:17:47.497Z,62.90
2023-05-14T23:20:14.459Z,62.40
2023-05-14T23:22:41.394Z,62.70
2023-05-14T23:25:08.870Z,62.80
2023-05-14T23:27:35.908Z,62.90
2023-05-14T23:30:04.035Z,63.00
2023-05-14T23:32:31.120Z,62.80
2023-05-14T23:34:58.064Z,62.70
2023-05-14T23:37:25.076Z,62.70
2023-05-14T23:39:52.130Z,63.30
2023-05-14T23:42:19.123Z,63.50
2023-05-14T23:44:46.115Z,63.80
2023-05-14T23:47:13.104Z,62.90
2023-05-14T23:49:40.821Z,62.80
2023-05-14T23:52:08.135Z,62.70
2023-05-14T23:54:35.113Z,64.30
2023-05-14T23:57:04.152Z,63.60
2023-05-14T23:59:31.273Z,63.30
